sensor_id;sensor_type;location;lat;lon;timestamp;pressure;altitude;pressure_sealevel;temperature;humidity
22283;BME280;11310;51.528;21.204;2024-03-23T00:55:04;99245.69;;;9.89;100.00
22283;BME280;11310;51.528;21.204;2024-03-23T00:57:32;99253.75;;;9.86;100.00
22283;BME280;11310;51.528;21.204;2024-03-23T00:59:58;99250.41;;;9.82;100.00
22283;BME280;11310;51.528;21.204;2024-03-23T01:02:26;99250.50;;;9.81;100.00
22283;BME280;11310;51.528;21.204;2024-03-23T01:04:52;99249.75;;;9.79;100.00
22283;BME280;11310;51.528;21.204;2024-03-23T01:07:20;99249.00;;;9.77;100.00
22283;BME280;11310;51.528;21.204;2024-03-23T01:09:46;99246.53;;;9.74;100.00
22283;BME280;11310;51.528;21.204;2024-03-23T01:12:14;99244.88;;;9.73;100.00
22283;BME280;11310;51.528;21.204;2024-03-23T01:14:41;99235.47;;;9.69;100.00
22283;BME280;11310;51.528;21.204;2024-03-23T01:17:11;99235.63;;;9.66;100.00
22283;BME280;11310;51.528;21.204;2024-03-23T01:19:37;99232.44;;;9.61;100.00
22283;BME280;11310;51.528;21.204;2024-03-23T01:22:05;99230.81;;;9.58;100.00
22283;BME280;11310;51.528;21.204;2024-03-23T01:24:31;99231.84;;;9.56;100.00
22283;BME280;11310;51.528;21.204;2024-03-23T01:26:58;99226.75;;;9.53;100.00
22283;BME280;11310;51.528;21.204;2024-03-23T01:29:26;99232.09;;;9.51;100.00
22283;BME280;11310;51.528;21.204;2024-03-23T01:31:53;99226.16;;;9.48;100.00
22283;BME280;11310;51.528;21.204;2024-03-23T01:34:21;99223.03;;;9.41;100.00
22283;BME280;11310;51.528;21.204;2024-03-23T01:36:50;99227.53;;;9.39;100.00
22283;BME280;11310;51.528;21.204;2024-03-23T01:39:17;99225.06;;;9.36;100.00
22283;BME280;11310;51.528;21.204;2024-03-23T01:41:44;99226.94;;;9.34;100.00
22283;BME280;11310;51.528;21.204;2024-03-23T01:44:10;99219.16;;;9.33;100.00
22283;BME280;11310;51.528;21.204;2024-03-23T01:46:39;99213.06;;;9.32;100.00
22283;BME280;11310;51.528;21.204;2024-03-23T01:49:07;99222.69;;;9.32;100.00
22283;BME280;11310;51.528;21.204;2024-03-23T01:51:35;99214.94;;;9.30;100.00
22283;BME280;11310;51.528;21.204;2024-03-23T01:54:03;99201.91;;;9.29;100.00
22283;BME280;11310;51.528;21.204;2024-03-23T01:56:30;99206.34;;;9.28;100.00
22283;BME280;11310;51.528;21.204;2024-03-23T01:59:01;99209.69;;;9.30;100.00
22283;BME280;11310;51.528;21.204;2024-03-23T02:01:28;99205.41;;;9.29;100.00
22283;BME280;11310;51.528;21.204;2024-03-23T02:03:57;99210.56;;;9.31;100.00
22283;BME280;11310;51.528;21.204;2024-03-23T02:06:24;99212.25;;;9.32;100.00
22283;BME280;11310;51.528;21.204;2024-03-23T02:08:55;99204.53;;;9.29;100.00
22283;BME280;11310;51.528;21.204;2024-03-23T02:11:21;99209.84;;;9.27;100.00
22283;BME280;11310;51.528;21.204;2024-03-23T02:13:48;99203.88;;;9.25;100.00
22283;BME280;11310;51.528;21.204;2024-03-23T02:16:14;99204.03;;;9.22;100.00
22283;BME280;11310;51.528;21.204;2024-03-23T02:18:41;99195.34;;;9.22;100.00
22283;BME280;11310;51.528;21.204;2024-03-23T02:21:09;99200.56;;;9.22;100.00
22283;BME280;11310;51.528;21.204;2024-03-23T02:23:37;99203.09;;;9.23;100.00
22283;BME280;11310;51.528;21.204;2024-03-23T02:26:04;99194.56;;;9.20;100.00
22283;BME280;11310;51.528;21.204;2024-03-23T02:28:31;99198.88;;;9.21;100.00
22283;BME280;11310;51.528;21.204;2024-03-23T02:30:57;99191.94;;;9.20;100.00
22283;BME280;11310;51.528;21.204;2024-03-23T02:33:25;99196.16;;;9.22;100.00
22283;BME280;11310;51.528;21.204;2024-03-23T02:35:55;99192.72;;;9.22;100.00
22283;BME280;11310;51.528;21.204;2024-03-23T02:38:23;99186.72;;;9.20;100.00
22283;BME280;11310;51.528;21.204;2024-03-23T02:40:51;99180.66;;;9.19;100.00
22283;BME280;11310;51.528;21.204;2024-03-23T02:43:18;99180.38;;;9.24;100.00
22283;BME280;11310;51.528;21.204;2024-03-23T02:45:44;99173.41;;;9.24;100.00
22283;BME280;11310;51.528;21.204;2024-03-23T02:48:11;99175.91;;;9.26;100.00
22283;BME280;11310;51.528;21.204;2024-03-23T02:50:38;99165.53;;;9.24;100.00
22283;BME280;11310;51.528;21.204;2024-03-23T02:53:05;99161.22;;;9.23;100.00
22283;BME280;11310;51.528;21.204;2024-03-23T02:55:31;99157.00;;;9.21;100.00
22283;BME280;11310;51.528;21.204;2024-03-23T02:58:00;99158.88;;;9.19;100.00
22283;BME280;11310;51.528;21.204;2024-03-23T03:00:27;99150.09;;;9.20;100.00
22283;BME280;11310;51.528;21.204;2024-03-23T03:02:55;99151.00;;;9.19;100.00
22283;BME280;11310;51.528;21.204;2024-03-23T03:05:21;99141.63;;;9.15;100.00
22283;BME280;11310;51.528;21.204;2024-03-23T03:07:48;99139.97;;;9.14;100.00
22283;BME280;11310;51.528;21.204;2024-03-23T03:10:17;99139.97;;;9.14;100.00
22283;BME280;11310;51.528;21.204;2024-03-23T03:12:47;99137.41;;;9.12;100.00
22283;BME280;11310;51.528;21.204;2024-03-23T03:15:15;99138.44;;;9.10;100.00
22283;BME280;11310;51.528;21.204;2024-03-23T03:17:42;99138.94;;;9.16;100.00
22283;BME280;11310;51.528;21.204;2024-03-23T03:20:09;99136.19;;;9.19;100.00
22283;BME280;11310;51.528;21.204;2024-03-23T03:22:39;99130.94;;;9.19;100.00
22283;BME280;11310;51.528;21.204;2024-03-23T03:25:06;99123.16;;;9.18;100.00
22283;BME280;11310;51.528;21.204;2024-03-23T03:27:34;99128.41;;;9.18;100.00
22283;BME280;11310;51.528;21.204;2024-03-23T03:30:00;99124.84;;;9.19;100.00
22283;BME280;11310;51.528;21.204;2024-03-23T03:32:30;99123.91;;;9.20;100.00
22283;BME280;11310;51.528;21.204;2024-03-23T03:34:56;99121.22;;;9.21;100.00
22283;BME280;11310;51.528;21.204;2024-03-23T03:37:24;99121.22;;;9.21;100.00
22283;BME280;11310;51.528;21.204;2024-03-23T03:39:50;99121.47;;;9.17;100.00
22283;BME280;11310;51.528;21.204;2024-03-23T03:42:17;99109.50;;;9.13;100.00
22283;BME280;11310;51.528;21.204;2024-03-23T03:44:45;99118.34;;;9.10;100.00
22283;BME280;11310;51.528;21.204;2024-03-23T03:47:12;99113.34;;;9.06;100.00
22283;BME280;11310;51.528;21.204;2024-03-23T03:49:40;99122.88;;;9.07;100.00
22283;BME280;11310;51.528;21.204;2024-03-23T03:52:07;99116.91;;;9.05;100.00
22283;BME280;11310;51.528;21.204;2024-03-23T03:54:33;99112.34;;;9.08;100.00
22283;BME280;11310;51.528;21.204;2024-03-23T03:57:00;99114.13;;;9.08;100.00
22283;BME280;11310;51.528;21.204;2024-03-23T03:59:27;99114.13;;;9.08;100.00
22283;BME280;11310;51.528;21.204;2024-03-23T04:01:55;99106.38;;;9.06;100.00
22283;BME280;11310;51.528;21.204;2024-03-23T04:04:21;99101.88;;;9.08;100.00
22283;BME280;11310;51.528;21.204;2024-03-23T04:06:50;99109.66;;;9.10;100.00
22283;BME280;11310;51.528;21.204;2024-03-23T04:09:16;99112.44;;;9.07;100.00
22283;BME280;11310;51.528;21.204;2024-03-23T04:11:44;99114.13;;;9.08;100.00
22283;BME280;11310;51.528;21.204;2024-03-23T04:14:10;99112.34;;;9.08;100.00
22283;BME280;11310;51.528;21.204;2024-03-23T04:16:37;99115.81;;;9.09;100.00
22283;BME280;11310;51.528;21.204;2024-03-23T04:19:05;99112.44;;;9.07;100.00
22283;BME280;11310;51.528;21.204;2024-03-23T04:21:33;99111.41;;;9.09;100.00
22283;BME280;11310;51.528;21.204;2024-03-23T04:24:01;99098.25;;;9.11;100.00
22283;BME280;11310;51.528;21.204;2024-03-23T04:26:29;99108.63;;;9.12;100.00
22283;BME280;11310;51.528;21.204;2024-03-23T04:28:55;99100.78;;;9.12;100.00
22283;BME280;11310;51.528;21.204;2024-03-23T04:31:23;99098.25;;;9.11;100.00
22283;BME280;11310;51.528;21.204;2024-03-23T04:33:50;99086.09;;;9.10;100.00
22283;BME280;11310;51.528;21.204;2024-03-23T04:36:17;99087.88;;;9.09;100.00
22283;BME280;11310;51.528;21.204;2024-03-23T04:38:46;99088.81;;;9.08;100.00
22283;BME280;11310;51.528;21.204;2024-03-23T04:41:17;99085.38;;;9.08;100.00
22283;BME280;11310;51.528;21.204;2024-03-23T04:43:47;99082.91;;;9.05;100.00
22283;BME280;11310;51.528;21.204;2024-03-23T04:46:15;99084.66;;;9.04;100.00
22283;BME280;11310;51.528;21.204;2024-03-23T04:48:43;99077.69;;;9.05;100.00
22283;BME280;11310;51.528;21.204;2024-03-23T04:51:11;99075.06;;;9.05;100.00
22283;BME280;11310;51.528;21.204;2024-03-23T04:53:39;99077.69;;;9.05;100.00
22283;BME280;11310;51.528;21.204;2024-03-23T04:56:06;99068.03;;;9.05;100.00
22283;BME280;11310;51.528;21.204;2024-03-23T04:58:34;99079.28;;;9.07;100.00
22283;BME280;11310;51.528;21.204;2024-03-23T05:01:01;99064.44;;;9.08;100.00
22283;BME280;11310;51.528;21.204;2024-03-23T05:03:28;99066.13;;;9.09;100.00
22283;BME280;11310;51.528;21.204;2024-03-23T05:05:56;99063.50;;;9.09;100.00
22283;BME280;11310;51.528;21.204;2024-03-23T05:08:23;99067.94;;;9.07;100.00
22283;BME280;11310;51.528;21.204;2024-03-23T05:10:51;99062.66;;;9.08;100.00
22283;BME280;11310;51.528;21.204;2024-03-23T05:13:19;99066.13;;;9.09;100.00
22283;BME280;11310;51.528;21.204;2024-03-23T05:15:52;99066.03;;;9.10;100.00
22283;BME280;11310;51.528;21.204;2024-03-23T05:18:19;99067.78;;;9.10;100.00
22283;BME280;11310;51.528;21.204;2024-03-23T05:20:46;99061.81;;;9.08;100.00
22283;BME280;11310;51.528;21.204;2024-03-23T05:23:13;99055.72;;;9.07;100.00
22283;BME280;11310;51.528;21.204;2024-03-23T05:25:40;99058.28;;;9.09;100.00
22283;BME280;11310;51.528;21.204;2024-03-23T05:28:07;99052.09;;;9.10;100.00
22283;BME280;11310;51.528;21.204;2024-03-23T05:30:35;99046.88;;;9.10;100.00
22283;BME280;11310;51.528;21.204;2024-03-23T05:33:02;99050.34;;;9.10;100.00
22283;BME280;11310;51.528;21.204;2024-03-23T05:35:30;99051.16;;;9.11;100.00
22283;BME280;11310;51.528;21.204;2024-03-23T05:37:57;99048.63;;;9.09;100.00
22283;BME280;11310;51.528;21.204;2024-03-23T05:40:30;99041.38;;;9.14;100.00
22283;BME280;11310;51.528;21.204;2024-03-23T05:42:58;99029.88;;;9.17;100.00
22283;BME280;11310;51.528;21.204;2024-03-23T05:45:25;99039.25;;;9.21;100.00
22283;BME280;11310;51.528;21.204;2024-03-23T05:47:53;99047.09;;;9.21;100.00
22283;BME280;11310;51.528;21.204;2024-03-23T05:50:21;99041.72;;;9.24;100.00
22283;BME280;11310;51.528;21.204;2024-03-23T05:52:49;99041.53;;;9.27;100.00
22283;BME280;11310;51.528;21.204;2024-03-23T05:55:16;99033.69;;;9.27;100.00
22283;BME280;11310;51.528;21.204;2024-03-23T05:57:43;99039.66;;;9.29;100.00
22283;BME280;11310;51.528;21.204;2024-03-23T06:00:11;99037.84;;;9.31;100.00
22283;BME280;11310;51.528;21.204;2024-03-23T06:02:42;99037.84;;;9.31;100.00
22283;BME280;11310;51.528;21.204;2024-03-23T06:05:10;99038.00;;;9.28;100.00
22283;BME280;11310;51.528;21.204;2024-03-23T06:07:39;99036.31;;;9.27;100.00
22283;BME280;11310;51.528;21.204;2024-03-23T06:10:07;99031.00;;;9.28;100.00
22283;BME280;11310;51.528;21.204;2024-03-23T06:12:33;99034.28;;;9.32;100.00
22283;BME280;11310;51.528;21.204;2024-03-23T06:15:01;99023.63;;;9.35;100.00
22283;BME280;11310;51.528;21.204;2024-03-23T06:17:27;99020.91;;;9.36;100.00
22283;BME280;11310;51.528;21.204;2024-03-23T06:19:55;99018.22;;;9.38;100.00
22283;BME280;11310;51.528;21.204;2024-03-23T06:22:22;99010.34;;;9.38;100.00
22283;BME280;11310;51.528;21.204;2024-03-23T06:24:51;99012.91;;;9.39;100.00
22283;BME280;11310;51.528;21.204;2024-03-23T06:27:17;99011.13;;;9.40;100.00
22283;BME280;11310;51.528;21.204;2024-03-23T06:29:45;99006.72;;;9.40;100.00
22283;BME280;11310;51.528;21.204;2024-03-23T06:32:12;99005.91;;;9.40;100.00
22283;BME280;11310;51.528;21.204;2024-03-23T06:34:41;99007.66;;;9.39;100.00
22283;BME280;11310;51.528;21.204;2024-03-23T06:37:08;99014.41;;;9.43;100.00
22283;BME280;11310;51.528;21.204;2024-03-23T06:39:35;99014.41;;;9.43;100.00
22283;BME280;11310;51.528;21.204;2024-03-23T06:42:05;99010.78;;;9.46;100.00
22283;BME280;11310;51.528;21.204;2024-03-23T06:44:33;99009.84;;;9.47;100.00
22283;BME280;11310;51.528;21.204;2024-03-23T06:47:00;99009.91;;;9.45;100.00
22283;BME280;11310;51.528;21.204;2024-03-23T06:49:28;99007.97;;;9.49;100.00
22283;BME280;11310;51.528;21.204;2024-03-23T06:51:57;99009.47;;;9.53;100.00
22283;BME280;11310;51.528;21.204;2024-03-23T06:54:26;99009.31;;;9.56;100.00
22283;BME280;11310;51.528;21.204;2024-03-23T06:56:52;99009.88;;;9.61;100.00
22283;BME280;11310;51.528;21.204;2024-03-23T06:59:21;98994.16;;;9.61;100.00
22283;BME280;11310;51.528;21.204;2024-03-23T07:01:47;98993.06;;;9.65;100.00
22283;BME280;11310;51.528;21.204;2024-03-23T07:04:15;98993.63;;;9.70;100.00
22283;BME280;11310;51.528;21.204;2024-03-23T07:06:45;98991.56;;;9.75;100.00
22283;BME280;11310;51.528;21.204;2024-03-23T07:09:12;98994.59;;;9.83;100.00
22283;BME280;11310;51.528;21.204;2024-03-23T07:11:39;98988.31;;;9.85;100.00
22283;BME280;11310;51.528;21.204;2024-03-23T07:14:06;98988.97;;;9.89;100.00
22283;BME280;11310;51.528;21.204;2024-03-23T07:16:34;98994.91;;;9.92;100.00
22283;BME280;11310;51.528;21.204;2024-03-23T07:19:02;98991.25;;;9.95;100.00
22283;BME280;11310;51.528;21.204;2024-03-23T07:21:28;98993.88;;;9.95;100.00
22283;BME280;11310;51.528;21.204;2024-03-23T07:23:56;98993.19;;;9.91;100.00
22283;BME280;11310;51.528;21.204;2024-03-23T07:26:22;98990.66;;;9.90;100.00
22283;BME280;11310;51.528;21.204;2024-03-23T07:28:50;98990.31;;;9.96;100.00
22283;BME280;11310;51.528;21.204;2024-03-23T07:31:17;98984.03;;;9.98;100.00
22283;BME280;11310;51.528;21.204;2024-03-23T07:33:46;98983.84;;;10.01;100.00
22283;BME280;11310;51.528;21.204;2024-03-23T07:36:13;98987.91;;;10.07;100.00
22283;BME280;11310;51.528;21.204;2024-03-23T07:38:41;98985.13;;;10.10;100.00
22283;BME280;11310;51.528;21.204;2024-03-23T07:41:08;98984.00;;;10.14;100.00
22283;BME280;11310;51.528;21.204;2024-03-23T07:43:39;98973.50;;;10.14;100.00
22283;BME280;11310;51.528;21.204;2024-03-23T07:46:09;98970.59;;;10.18;100.00
22283;BME280;11310;51.528;21.204;2024-03-23T07:48:39;98969.56;;;10.21;100.00
22283;BME280;11310;51.528;21.204;2024-03-23T07:51:08;98977.34;;;10.22;100.00
22283;BME280;11310;51.528;21.204;2024-03-23T07:53:36;98961.78;;;10.19;100.00
22283;BME280;11310;51.528;21.204;2024-03-23T07:56:05;98954.06;;;10.18;100.00
22283;BME280;11310;51.528;21.204;2024-03-23T07:58:34;98949.38;;;10.23;100.00
22283;BME280;11310;51.528;21.204;2024-03-23T08:01:04;98944.69;;;10.28;100.00
22283;BME280;11310;51.528;21.204;2024-03-23T08:03:34;98929.50;;;10.33;100.00
22283;BME280;11310;51.528;21.204;2024-03-23T08:06:08;98937.44;;;10.45;100.00
22283;BME280;11310;51.528;21.204;2024-03-23T08:08:36;98939.56;;;10.53;100.00
22283;BME280;11310;51.528;21.204;2024-03-23T08:11:04;98932.25;;;10.58;100.00
22283;BME280;11310;51.528;21.204;2024-03-23T08:13:32;98922.16;;;10.52;100.00
22283;BME280;11310;51.528;21.204;2024-03-23T08:15:59;98924.78;;;10.52;100.00
22283;BME280;11310;51.528;21.204;2024-03-23T08:18:27;98928.13;;;10.54;100.00
22283;BME280;11310;51.528;21.204;2024-03-23T08:20:57;98923.66;;;10.56;100.00
22283;BME280;11310;51.528;21.204;2024-03-23T08:23:27;98919.38;;;10.55;100.00
22283;BME280;11310;51.528;21.204;2024-03-23T08:25:57;98915.78;;;10.56;100.00
22283;BME280;11310;51.528;21.204;2024-03-23T08:28:25;98915.25;;;10.51;100.00
22283;BME280;11310;51.528;21.204;2024-03-23T08:30:52;98911.69;;;10.52;100.00
22283;BME280;11310;51.528;21.204;2024-03-23T08:33:20;98910.00;;;10.51;100.00
22283;BME280;11310;51.528;21.204;2024-03-23T08:35:53;98913.56;;;10.50;100.00
22283;BME280;11310;51.528;21.204;2024-03-23T08:38:22;98909.06;;;10.52;100.00
22283;BME280;11310;51.528;21.204;2024-03-23T08:40:57;98904.44;;;10.55;100.00
22283;BME280;11310;51.528;21.204;2024-03-23T08:43:25;98891.06;;;10.60;100.00
22283;BME280;11310;51.528;21.204;2024-03-23T08:45:52;98892.72;;;10.61;100.00
22283;BME280;11310;51.528;21.204;2024-03-23T08:48:20;98883.09;;;10.61;100.00
22283;BME280;11310;51.528;21.204;2024-03-23T08:50:47;98870.81;;;10.62;100.00
22283;BME280;11310;51.528;21.204;2024-03-23T08:53:15;98867.25;;;10.63;100.00
22283;BME280;11310;51.528;21.204;2024-03-23T08:55:41;98858.75;;;10.59;100.00
22283;BME280;11310;51.528;21.204;2024-03-23T08:58:10;98862.59;;;10.54;100.00
22283;BME280;11310;51.528;21.204;2024-03-23T09:00:36;98857.56;;;10.51;100.00
22283;BME280;11310;51.528;21.204;2024-03-23T09:03:03;98846.31;;;10.49;100.00
22283;BME280;11310;51.528;21.204;2024-03-23T09:05:30;98847.72;;;10.54;100.00
22283;BME280;11310;51.528;21.204;2024-03-23T09:08:02;98841.44;;;10.57;100.00
22283;BME280;11310;51.528;21.204;2024-03-23T09:10:28;98840.09;;;10.64;100.00
22283;BME280;11310;51.528;21.204;2024-03-23T09:12:56;98831.81;;;10.70;100.00
22283;BME280;11310;51.528;21.204;2024-03-23T09:15:24;98831.22;;;10.79;100.00
22283;BME280;11310;51.528;21.204;2024-03-23T09:17:52;98835.44;;;10.94;100.00
22283;BME280;11310;51.528;21.204;2024-03-23T09:20:18;98835.69;;;11.16;100.00
22283;BME280;11310;51.528;21.204;2024-03-23T09:22:48;98830.06;;;11.34;100.00
22283;BME280;11310;51.528;21.204;2024-03-23T09:25:14;98833.50;;;11.47;100.00
22283;BME280;11310;51.528;21.204;2024-03-23T09:27:42;98823.94;;;11.59;100.00
22283;BME280;11310;51.528;21.204;2024-03-23T09:30:13;98819.03;;;11.67;100.00
22283;BME280;11310;51.528;21.204;2024-03-23T09:32:45;98815.88;;;11.87;100.00
22283;BME280;11310;51.528;21.204;2024-03-23T09:35:12;98814.44;;;12.19;100.00
22283;BME280;11310;51.528;21.204;2024-03-23T09:37:40;98812.66;;;12.43;100.00
22283;BME280;11310;51.528;21.204;2024-03-23T09:40:09;98815.22;;;12.79;100.00
22283;BME280;11310;51.528;21.204;2024-03-23T09:42:37;98812.94;;;13.09;100.00
22283;BME280;11310;51.528;21.204;2024-03-23T09:45:13;98807.13;;;13.39;100.00
22283;BME280;11310;51.528;21.204;2024-03-23T09:47:48;98804.41;;;13.73;100.00
22283;BME280;11310;51.528;21.204;2024-03-23T09:50:14;98800.31;;;14.24;100.00
22283;BME280;11310;51.528;21.204;2024-03-23T09:52:42;98792.19;;;14.79;100.00
22283;BME280;11310;51.528;21.204;2024-03-23T09:55:09;98799.59;;;15.37;100.00
22283;BME280;11310;51.528;21.204;2024-03-23T09:57:36;98791.47;;;15.80;100.00
22283;BME280;11310;51.528;21.204;2024-03-23T10:00:03;98784.69;;;16.26;100.00
22283;BME280;11310;51.528;21.204;2024-03-23T10:02:34;98775.13;;;16.73;100.00
22283;BME280;11310;51.528;21.204;2024-03-23T10:05:02;98765.78;;;16.97;100.00
22283;BME280;11310;51.528;21.204;2024-03-23T10:07:30;98755.28;;;17.15;100.00
22283;BME280;11310;51.528;21.204;2024-03-23T10:09:56;98752.31;;;17.37;100.00
22283;BME280;11310;51.528;21.204;2024-03-23T10:12:24;98741.06;;;17.71;100.00
22283;BME280;11310;51.528;21.204;2024-03-23T10:14:50;98743.94;;;17.87;100.00
22283;BME280;11310;51.528;21.204;2024-03-23T10:17:19;98729.53;;;17.90;100.00
22283;BME280;11310;51.528;21.204;2024-03-23T10:19:46;98719.94;;;18.06;100.00
22283;BME280;11310;51.528;21.204;2024-03-23T10:22:18;98704.66;;;18.35;100.00
22283;BME280;11310;51.528;21.204;2024-03-23T10:24:46;98711.88;;;18.60;100.00
22283;BME280;11310;51.528;21.204;2024-03-23T10:27:15;98704.19;;;18.92;98.93
22283;BME280;11310;51.528;21.204;2024-03-23T10:29:43;98701.78;;;19.07;99.05
22283;BME280;11310;51.528;21.204;2024-03-23T10:32:11;98693.00;;;19.32;97.36
22283;BME280;11310;51.528;21.204;2024-03-23T10:34:38;98677.91;;;19.40;96.66
22283;BME280;11310;51.528;21.204;2024-03-23T10:37:07;98676.66;;;19.52;97.74
22283;BME280;11310;51.528;21.204;2024-03-23T10:39:38;98680.75;;;19.80;96.46
22283;BME280;11310;51.528;21.204;2024-03-23T10:42:07;98662.09;;;20.14;94.66
22283;BME280;11310;51.528;21.204;2024-03-23T10:44:35;98669.28;;;20.29;91.99
22283;BME280;11310;51.528;21.204;2024-03-23T10:47:03;98656.47;;;20.33;91.02
22283;BME280;11310;51.528;21.204;2024-03-23T10:49:32;98667.59;;;20.20;92.67
22283;BME280;11310;51.528;21.204;2024-03-23T10:52:02;98662.09;;;20.14;93.78
22283;BME280;11310;51.528;21.204;2024-03-23T10:54:30;98652.94;;;20.32;93.66
22283;BME280;11310;51.528;21.204;2024-03-23T10:57:03;98638.97;;;20.54;91.97
22283;BME280;11310;51.528;21.204;2024-03-23T10:59:32;98636.13;;;20.80;90.63
22283;BME280;11310;51.528;21.204;2024-03-23T11:02:01;98624.97;;;21.01;88.21
22283;BME280;11310;51.528;21.204;2024-03-23T11:04:30;98616.09;;;21.08;86.50
22283;BME280;11310;51.528;21.204;2024-03-23T11:06:58;98615.53;;;21.29;87.64
22283;BME280;11310;51.528;21.204;2024-03-23T11:09:41;98611.75;;;21.70;83.32
22283;BME280;11310;51.528;21.204;2024-03-23T11:12:27;98621.63;;;21.92;74.99
22283;BME280;11310;51.528;21.204;2024-03-23T11:14:55;98604.56;;;22.01;82.10
22283;BME280;11310;51.528;21.204;2024-03-23T11:17:26;98593.88;;;22.01;83.01
22283;BME280;11310;51.528;21.204;2024-03-23T11:19:53;98598.28;;;22.16;80.24
22283;BME280;11310;51.528;21.204;2024-03-23T11:22:41;98594.72;;;22.01;67.77
22283;BME280;11310;51.528;21.204;2024-03-23T11:25:17;98582.13;;;21.87;78.47
22283;BME280;11310;51.528;21.204;2024-03-23T11:27:49;98571.91;;;22.13;78.11
22283;BME280;11310;51.528;21.204;2024-03-23T11:30:17;98582.66;;;22.28;78.34
22283;BME280;11310;51.528;21.204;2024-03-23T11:32:46;98565.19;;;22.17;79.24
22283;BME280;11310;51.528;21.204;2024-03-23T11:35:29;98572.09;;;22.34;69.30
22283;BME280;11310;51.528;21.204;2024-03-23T11:38:07;98567.03;;;22.39;74.01
22283;BME280;11310;51.528;21.204;2024-03-23T11:40:34;98568.81;;;22.47;77.70
22283;BME280;11310;51.528;21.204;2024-03-23T11:43:05;98567.16;;;22.46;76.52
22283;BME280;11310;51.528;21.204;2024-03-23T11:45:40;98569.88;;;22.75;71.15
22283;BME280;11310;51.528;21.204;2024-03-23T11:48:09;98560.16;;;22.96;75.50
22283;BME280;11310;51.528;21.204;2024-03-23T11:50:40;98562.25;;;23.01;69.87
22283;BME280;11310;51.528;21.204;2024-03-23T11:53:08;98554.50;;;23.06;71.83
22283;BME280;11310;51.528;21.204;2024-03-23T11:55:42;98546.13;;;23.23;65.85
22283;BME280;11310;51.528;21.204;2024-03-23T11:58:12;98538.81;;;23.46;70.69
22283;BME280;11310;51.528;21.204;2024-03-23T12:00:39;98529.72;;;23.62;70.51
22283;BME280;11310;51.528;21.204;2024-03-23T12:03:07;98531.00;;;23.66;68.00
22283;BME280;11310;51.528;21.204;2024-03-23T12:05:34;98516.91;;;23.57;70.84
22283;BME280;11310;51.528;21.204;2024-03-23T12:08:21;98514.56;;;23.69;58.73
22283;BME280;11310;51.528;21.204;2024-03-23T12:10:51;98496.84;;;23.68;70.03
22283;BME280;11310;51.528;21.204;2024-03-23T12:13:20;98504.22;;;23.66;68.88
22283;BME280;11310;51.528;21.204;2024-03-23T12:15:49;98489.91;;;23.38;70.03
22283;BME280;11310;51.528;21.204;2024-03-23T12:18:23;98499.94;;;23.50;62.15
22283;BME280;11310;51.528;21.204;2024-03-23T12:20:50;98485.47;;;23.45;68.59
22283;BME280;11310;51.528;21.204;2024-03-23T12:23:17;98476.94;;;22.91;69.98
22283;BME280;11310;51.528;21.204;2024-03-23T12:25:44;98470.56;;;23.07;69.87
22283;BME280;11310;51.528;21.204;2024-03-23T12:28:11;98467.69;;;23.08;70.10
22283;BME280;11310;51.528;21.204;2024-03-23T12:30:40;98468.13;;;23.41;66.92
22283;BME280;11310;51.528;21.204;2024-03-23T12:33:07;98467.72;;;23.23;67.52
22283;BME280;11310;51.528;21.204;2024-03-23T12:35:34;98455.00;;;22.96;65.44
22283;BME280;11310;51.528;21.204;2024-03-23T12:38:00;98443.16;;;23.05;65.77
22283;BME280;11310;51.528;21.204;2024-03-23T12:40:28;98440.28;;;23.21;65.13
22283;BME280;11310;51.528;21.204;2024-03-23T12:42:55;98433.94;;;23.22;65.03
22283;BME280;11310;51.528;21.204;2024-03-23T12:45:23;98431.25;;;23.07;63.33
22283;BME280;11310;51.528;21.204;2024-03-23T12:47:50;98434.25;;;22.83;66.36
22283;BME280;11310;51.528;21.204;2024-03-23T12:50:20;98413.94;;;22.89;66.32
22283;BME280;11310;51.528;21.204;2024-03-23T12:52:46;98414.25;;;22.50;67.26
22283;BME280;11310;51.528;21.204;2024-03-23T12:55:14;98400.38;;;22.03;68.23
22283;BME280;11310;51.528;21.204;2024-03-23T12:57:40;98404.78;;;21.96;66.12
22283;BME280;11310;51.528;21.204;2024-03-23T13:00:08;98399.09;;;22.14;68.63
22283;BME280;11310;51.528;21.204;2024-03-23T13:02:37;98390.88;;;22.01;69.32
22283;BME280;11310;51.528;21.204;2024-03-23T13:05:07;98384.03;;;21.61;69.40
22283;BME280;11310;51.528;21.204;2024-03-23T13:07:34;98378.06;;;21.82;70.34
22283;BME280;11310;51.528;21.204;2024-03-23T13:10:04;98368.69;;;22.15;66.52
22283;BME280;11310;51.528;21.204;2024-03-23T13:12:31;98365.69;;;22.47;65.49
22283;BME280;11310;51.528;21.204;2024-03-23T13:14:59;98357.22;;;22.58;63.47
22283;BME280;11310;51.528;21.204;2024-03-23T13:17:26;98355.25;;;22.66;64.27
22283;BME280;11310;51.528;21.204;2024-03-23T13:19:54;98349.66;;;22.32;64.55
22283;BME280;11310;51.528;21.204;2024-03-23T13:22:24;98343.06;;;21.77;66.38
22283;BME280;11310;51.528;21.204;2024-03-23T13:24:51;98337.38;;;21.57;68.69
22283;BME280;11310;51.528;21.204;2024-03-23T13:27:18;98322.47;;;22.00;66.19
22283;BME280;11310;51.528;21.204;2024-03-23T13:29:45;98323.94;;;22.46;65.30
22283;BME280;11310;51.528;21.204;2024-03-23T13:32:13;98311.63;;;22.66;64.24
22283;BME280;11310;51.528;21.204;2024-03-23T13:34:40;98306.97;;;22.89;62.82
22283;BME280;11310;51.528;21.204;2024-03-23T13:37:06;98297.13;;;22.54;64.31
22283;BME280;11310;51.528;21.204;2024-03-23T13:39:38;98294.66;;;22.23;64.76
22283;BME280;11310;51.528;21.204;2024-03-23T13:42:05;98302.94;;;21.99;67.41
22283;BME280;11310;51.528;21.204;2024-03-23T13:44:32;98288.94;;;21.46;68.74
22283;BME280;11310;51.528;21.204;2024-03-23T13:46:59;98271.06;;;21.32;71.05